Time;durP1;ratioP1;P1;durP2;ratioP2;P2;SDS_P1;SDS_P2;PMS_P1;PMS_P2;Temp;Humidity;BMP_temperature;BMP_pressure;BME280_temperature;BME280_humidity;BME280_pressure;Samples;Min_cycle;Max_cycle;Signal;HPM_P1;HPM_P2
2022/05/17 00:01:10;;;;;;;9.00;6.82;;;26.20;99.90;;;;;;4192312;28;20048;-63
2022/05/17 00:03:15;;;;;;;9.23;7.18;;;26.20;99.90;;;;;;4195124;28;20048;-64
2022/05/17 00:05:20;;;;;;;7.43;5.85;;;26.20;99.90;;;;;;4196083;28;20075;-62
2022/05/17 00:07:25;;;;;;;9.88;6.78;;;26.20;99.90;;;;;;4195989;28;20052;-63
2022/05/17 00:09:30;;;;;;;9.75;6.97;;;26.20;99.80;;;;;;4197082;28;20055;-62
2022/05/17 00:11:36;;;;;;;11.35;6.75;;;26.20;99.70;;;;;;4195890;28;20044;-63
2022/05/17 00:13:40;;;;;;;9.25;6.80;;;26.20;99.80;;;;;;4197840;28;20051;-63
2022/05/17 00:15:47;;;;;;;8.63;6.50;;;26.10;99.90;;;;;;4196087;28;20098;-62
2022/05/17 00:17:52;;;;;;;8.02;6.80;;;26.10;99.70;;;;;;4194889;28;20392;-62
2022/05/17 00:19:57;;;;;;;8.20;6.97;;;26.20;99.50;;;;;;4204036;28;20390;-63
2022/05/17 00:22:02;;;;;;;7.53;6.18;;;26.20;99.70;;;;;;4196115;28;20060;-62
2022/05/17 00:24:06;;;;;;;9.65;7.03;;;26.20;99.70;;;;;;4193964;28;20482;-62
2022/05/17 00:26:12;;;;;;;8.02;6.28;;;26.20;99.90;;;;;;4195490;28;20176;-62
2022/05/17 00:28:19;;;;;;;8.27;6.80;;;26.30;99.90;;;;;;4195716;28;20036;-62
2022/05/17 00:30:23;;;;;;;7.15;6.32;;;26.30;99.80;;;;;;3283760;27;10000874;-63
2022/05/17 00:32:28;;;;;;;7.90;6.22;;;26.40;99.60;;;;;;4158890;28;20136;-63
2022/05/17 00:34:33;;;;;;;7.25;6.22;;;26.40;99.40;;;;;;4148037;28;20060;-62
2022/05/17 00:36:37;;;;;;;8.15;6.60;;;26.50;99.50;;;;;;4146763;28;20497;-62
2022/05/17 00:38:42;;;;;;;7.32;6.63;;;26.50;99.40;;;;;;4146597;28;20049;-62
2022/05/17 00:40:46;;;;;;;8.50;7.10;;;26.50;99.70;;;;;;4147637;28;20052;-62
2022/05/17 00:42:52;;;;;;;7.28;6.07;;;26.50;99.90;;;;;;4145944;28;20120;-62
2022/05/17 00:44:57;;;;;;;9.80;6.25;;;26.50;99.90;;;;;;4149129;28;20108;-62
2022/05/17 00:47:04;;;;;;;7.28;6.43;;;26.60;99.90;;;;;;4146496;28;20037;-62
2022/05/17 00:49:10;;;;;;;9.00;6.85;;;26.50;99.70;;;;;;4158142;28;20061;-62
2022/05/17 00:51:17;;;;;;;7.50;6.80;;;26.60;99.70;;;;;;4121045;28;20125;-63
2022/05/17 00:53:33;;;;;;;10.02;6.90;;;26.60;99.70;;;;;;4143792;28;20048;-62
2022/05/17 00:56:00;;;;;;;8.55;6.90;;;26.50;99.80;;;;;;4145646;28;20100;-62
2022/05/17 00:58:12;;;;;;;10.00;6.43;;;26.60;99.50;;;;;;4128616;28;20494;-62
2022/05/17 01:00:19;;;;;;;8.85;6.85;;;26.60;99.70;;;;;;4139523;28;20042;-62
2022/05/17 01:02:25;;;;;;;8.23;6.70;;;26.60;99.90;;;;;;4132503;28;20061;-62
2022/05/17 01:04:29;;;;;;;8.05;6.45;;;26.60;99.50;;;;;;4147979;28;20042;-61
2022/05/17 01:06:43;;;;;;;9.35;6.57;;;26.60;99.40;;;;;;4147557;28;20049;-61
2022/05/17 01:08:47;;;;;;;8.48;6.97;;;26.60;99.10;;;;;;4128116;28;20627;-62
2022/05/17 01:10:52;;;;;;;12.35;7.00;;;26.60;99.20;;;;;;4146363;28;20048;-62
2022/05/17 01:15:14;;;;;;;7.95;6.32;;;26.70;99.10;;;;;;4144584;28;20049;-63
2022/05/17 01:17:21;;;;;;;9.52;6.57;;;26.70;98.90;;;;;;4144191;28;20049;-63
2022/05/17 01:19:26;;;;;;;7.55;6.50;;;26.80;98.90;;;;;;4145477;28;20501;-64
2022/05/17 01:21:32;;;;;;;8.55;6.68;;;26.80;98.80;;;;;;4149076;28;20698;-63
2022/05/17 01:23:38;;;;;;;6.88;5.95;;;26.80;98.90;;;;;;4143550;28;20048;-64
2022/05/17 01:25:44;;;;;;;8.38;6.28;;;26.80;98.90;;;;;;4144331;28;20179;-64
2022/05/17 01:27:53;;;;;;;7.28;6.40;;;26.80;99.00;;;;;;4145767;28;20056;-63
2022/05/17 01:29:59;;;;;;;8.32;6.32;;;26.80;98.80;;;;;;4149989;28;20488;-64
2022/05/17 01:32:05;;;;;;;7.90;6.70;;;26.80;98.70;;;;;;4147610;28;20042;-63
2022/05/17 01:34:10;;;;;;;8.40;6.82;;;26.80;98.80;;;;;;4145490;28;20038;-61
2022/05/17 01:36:21;;;;;;;8.95;6.70;;;26.80;99.00;;;;;;4146722;28;20050;-62
2022/05/17 01:38:27;;;;;;;8.77;6.55;;;26.90;98.80;;;;;;4138303;28;20077;-62
2022/05/17 01:40:31;;;;;;;9.35;6.50;;;26.90;98.60;;;;;;4145957;28;20064;-62
2022/05/17 01:42:37;;;;;;;8.20;6.57;;;26.90;98.40;;;;;;4145949;28;20092;-62
2022/05/17 01:44:43;;;;;;;12.52;7.03;;;26.90;98.50;;;;;;4144915;28;20499;-62
2022/05/17 01:46:49;;;;;;;7.13;6.43;;;26.90;98.40;;;;;;4144118;28;20045;-62
2022/05/17 01:48:57;;;;;;;8.02;6.18;;;27.00;98.40;;;;;;4145010;28;20058;-62
2022/05/17 01:51:02;;;;;;;8.07;6.22;;;27.00;98.20;;;;;;4144880;28;20050;-62
2022/05/17 01:53:10;;;;;;;8.60;6.50;;;27.10;97.90;;;;;;4145857;28;20038;-62
2022/05/17 01:55:14;;;;;;;7.38;6.60;;;27.10;98.00;;;;;;4127683;28;20069;-62
2022/05/17 01:57:20;;;;;;;7.93;6.63;;;27.10;98.20;;;;;;4145644;28;20042;-62
2022/05/17 01:59:24;;;;;;;9.40;7.07;;;27.10;98.30;;;;;;4145621;28;20045;-62
2022/05/17 02:01:29;;;;;;;8.18;5.90;;;27.10;98.20;;;;;;4145324;28;20045;-62
2022/05/17 02:03:34;;;;;;;8.43;6.63;;;27.10;98.10;;;;;;4145538;28;20054;-62
2022/05/17 02:05:39;;;;;;;8.80;5.90;;;27.10;97.90;;;;;;4147465;28;20050;-62
2022/05/17 02:07:43;;;;;;;6.85;6.15;;;27.20;97.80;;;;;;4145981;28;20093;-62
2022/05/17 02:09:48;;;;;;;8.43;6.32;;;27.20;97.90;;;;;;4144393;28;20049;-62
2022/05/17 02:11:54;;;;;;;9.68;5.93;;;27.20;97.80;;;;;;4149895;28;20042;-63
2022/05/17 02:14:00;;;;;;;8.20;6.20;;;27.30;97.80;;;;;;4148539;28;20038;-63
2022/05/17 02:16:09;;;;;;;9.68;6.03;;;27.20;97.80;;;;;;4153096;28;20048;-63
2022/05/17 02:18:14;;;;;;;7.15;5.90;;;27.00;97.60;;;;;;4148958;28;20045;-63
2022/05/17 02:20:19;;;;;;;5.95;5.32;;;27.00;97.70;;;;;;4149025;28;20108;-63
2022/05/17 02:22:24;;;;;;;7.28;5.78;;;27.20;97.70;;;;;;4148723;28;20050;-63
2022/05/17 02:24:28;;;;;;;7.68;5.97;;;27.10;97.60;;;;;;4148677;28;20133;-63
2022/05/17 02:26:34;;;;;;;6.57;5.53;;;27.20;97.80;;;;;;4148847;28;20057;-63
2022/05/17 02:28:42;;;;;;;7.43;5.80;;;27.20;97.20;;;;;;4148727;28;20054;-63
2022/05/17 02:30:47;;;;;;;6.20;5.30;;;27.20;97.50;;;;;;4149046;28;20038;-63
2022/05/17 02:32:51;;;;;;;8.27;5.20;;;27.20;97.20;;;;;;4148013;28;20103;-63
2022/05/17 02:34:57;;;;;;;7.50;5.55;;;27.10;96.90;;;;;;4148005;28;20050;-63
2022/05/17 02:37:03;;;;;;;7.75;5.45;;;27.20;96.90;;;;;;4148662;28;20137;-63
2022/05/17 02:39:08;;;;;;;7.53;5.22;;;27.20;96.80;;;;;;4158313;28;20042;-63
2022/05/17 02:41:13;;;;;;;6.95;5.53;;;27.30;96.60;;;;;;4148621;28;20049;-63
2022/05/17 02:43:18;;;;;;;7.80;5.38;;;27.50;96.80;;;;;;4148068;28;20046;-63
2022/05/17 02:45:23;;;;;;;6.57;5.55;;;27.50;96.70;;;;;;4148188;28;20042;-63
2022/05/17 02:47:28;;;;;;;10.93;5.57;;;27.50;96.90;;;;;;4148675;28;20511;-63
2022/05/17 02:49:33;;;;;;;7.63;5.35;;;27.70;96.90;;;;;;4144320;28;20420;-63
2022/05/17 02:51:38;;;;;;;7.13;5.72;;;27.80;96.70;;;;;;4147803;28;20096;-63
2022/05/17 02:53:45;;;;;;;7.63;5.50;;;27.80;96.60;;;;;;4143379;28;20054;-63
2022/05/17 02:55:49;;;;;;;7.00;5.25;;;27.80;96.60;;;;;;4148357;28;20046;-63
2022/05/17 02:57:54;;;;;;;6.28;5.55;;;27.90;96.70;;;;;;4148166;28;20045;-63
2022/05/17 02:59:59;;;;;;;6.15;5.40;;;27.90;96.40;;;;;;4148336;28;20057;-63
2022/05/17 03:02:03;;;;;;;9.55;5.50;;;27.90;96.50;;;;;;4130951;28;20038;-63
2022/05/17 03:04:09;;;;;;;6.75;5.45;;;28.00;96.40;;;;;;4147826;28;20141;-63
2022/05/17 03:06:13;;;;;;;6.85;5.30;;;27.80;96.60;;;;;;4147124;28;20136;-63
2022/05/17 03:08:18;;;;;;;8.68;5.15;;;27.80;96.50;;;;;;4148233;28;20081;-62
2022/05/17 03:10:22;;;;;;;5.72;5.13;;;27.90;96.40;;;;;;4148132;28;20038;-62
2022/05/17 03:12:28;;;;;;;8.13;5.30;;;27.80;96.40;;;;;;4146878;28;20050;-62
2022/05/17 03:14:32;;;;;;;5.65;5.05;;;27.80;96.50;;;;;;4147744;28;20042;-62
2022/05/17 03:16:37;;;;;;;7.32;4.75;;;27.80;96.40;;;;;;4147966;28;20038;-62
2022/05/17 03:18:41;;;;;;;5.88;4.95;;;27.90;96.40;;;;;;4154665;28;20116;-62
2022/05/17 03:20:48;;;;;;;6.13;4.78;;;27.90;96.30;;;;;;4145942;28;20449;-63
2022/05/17 03:22:53;;;;;;;6.70;5.45;;;28.00;96.20;;;;;;4146923;28;20077;-63
2022/05/17 03:24:58;;;;;;;5.80;4.82;;;28.00;96.40;;;;;;4146598;28;20436;-62
2022/05/17 03:27:23;;;;;;;5.60;5.03;;;28.20;96.30;;;;;;4140000;28;20167;-63
2022/05/17 03:29:29;;;;;;;7.80;5.40;;;28.40;96.30;;;;;;4162197;28;20049;-64
2022/05/17 03:31:35;;;;;;;7.82;5.15;;;28.40;96.10;;;;;;4147041;28;20508;-64
2022/05/17 03:33:40;;;;;;;6.38;5.28;;;28.40;95.80;;;;;;4143322;28;20103;-64
2022/05/17 03:35:44;;;;;;;7.43;5.30;;;28.50;95.70;;;;;;4147463;28;20053;-63
2022/05/17 03:37:49;;;;;;;7.38;5.43;;;28.50;95.70;;;;;;4147042;28;20038;-64
2022/05/17 03:39:53;;;;;;;7.15;5.57;;;28.50;96.20;;;;;;4147615;28;20380;-64
2022/05/17 03:41:58;;;;;;;7.90;5.50;;;28.60;95.80;;;;;;4145427;28;20484;-63
2022/05/17 03:44:03;;;;;;;6.68;5.40;;;28.60;95.50;;;;;;4147307;28;20104;-62
2022/05/17 03:46:08;;;;;;;5.75;5.13;;;28.50;95.60;;;;;;4145817;28;20081;-62
2022/05/17 03:48:13;;;;;;;5.15;4.65;;;28.60;95.40;;;;;;4147467;28;20042;-63
2022/05/17 03:50:18;;;;;;;5.63;5.05;;;28.50;95.30;;;;;;4148769;28;20054;-63
2022/05/17 03:52:27;;;;;;;6.32;5.28;;;28.60;95.30;;;;;;4147038;28;20050;-62
2022/05/17 03:54:32;;;;;;;6.63;5.13;;;28.60;95.40;;;;;;4153074;28;20141;-64
2022/05/17 03:56:36;;;;;;;6.40;5.68;;;28.70;95.30;;;;;;4147367;28;20038;-63
2022/05/17 03:58:41;;;;;;;8.32;5.25;;;28.70;95.20;;;;;;4147117;28;20532;-63
2022/05/17 04:00:45;;;;;;;7.70;5.47;;;28.80;95.40;;;;;;4161018;28;20582;-63
2022/05/17 04:02:50;;;;;;;6.97;5.28;;;28.80;95.40;;;;;;4143651;28;20061;-63
2022/05/17 04:04:55;;;;;;;9.07;5.65;;;28.90;95.40;;;;;;4144149;28;20073;-63
2022/05/17 04:06:59;;;;;;;5.50;4.60;;;28.70;95.30;;;;;;4146190;28;20057;-62
2022/05/17 04:09:05;;;;;;;6.03;4.88;;;28.70;95.30;;;;;;4147349;28;20054;-62
2022/05/17 04:11:10;;;;;;;5.28;4.75;;;28.60;94.90;;;;;;4159288;28;20075;-63
2022/05/17 04:13:14;;;;;;;4.75;4.25;;;28.50;94.90;;;;;;4146598;28;20125;-63
2022/05/17 04:15:21;;;;;;;6.05;4.82;;;28.40;95.30;;;;;;4147140;28;20044;-63
2022/05/17 04:17:26;;;;;;;5.57;4.57;;;28.50;94.80;;;;;;4147120;28;20073;-63
2022/05/17 04:19:32;;;;;;;10.48;4.78;;;28.60;95.10;;;;;;4146115;28;20042;-63
2022/05/17 04:21:39;;;;;;;5.80;5.07;;;28.60;95.30;;;;;;4144699;28;20088;-63
2022/05/17 04:23:43;;;;;;;5.57;5.00;;;28.90;95.40;;;;;;4129388;28;20444;-63
2022/05/17 04:25:48;;;;;;;5.78;5.13;;;28.80;95.20;;;;;;4146130;28;20061;-63
2022/05/17 04:27:53;;;;;;;6.10;4.68;;;28.80;95.30;;;;;;4161305;28;20087;-63
2022/05/17 04:29:59;;;;;;;6.40;5.20;;;28.90;95.20;;;;;;4138954;28;20077;-64
2022/05/17 04:32:04;;;;;;;6.45;4.75;;;28.90;95.00;;;;;;4145899;28;20046;-63
2022/05/17 04:34:08;;;;;;;5.65;5.05;;;29.00;94.70;;;;;;4146949;28;20054;-63
2022/05/17 04:36:13;;;;;;;5.75;4.70;;;29.00;94.90;;;;;;4146113;28;20441;-63
2022/05/17 04:38:18;;;;;;;5.25;4.68;;;29.10;94.70;;;;;;4146521;28;20140;-63
2022/05/17 04:40:22;;;;;;;6.57;4.57;;;29.10;94.80;;;;;;4147135;28;20480;-64
2022/05/17 04:42:27;;;;;;;6.25;4.70;;;29.10;94.50;;;;;;4146309;28;20092;-64
2022/05/17 04:44:32;;;;;;;5.43;4.70;;;29.10;94.60;;;;;;4147033;28;20514;-63
2022/05/17 04:46:37;;;;;;;5.93;4.32;;;29.10;94.70;;;;;;4146713;28;20580;-63
2022/05/17 04:48:41;;;;;;;5.13;4.57;;;29.20;94.70;;;;;;4146757;28;20444;-64
2022/05/17 04:50:46;;;;;;;5.68;4.63;;;29.20;94.70;;;;;;4146540;28;20046;-63
2022/05/17 04:52:52;;;;;;;6.22;5.10;;;29.30;94.50;;;;;;4144937;28;20459;-62
2022/05/17 04:54:56;;;;;;;7.95;5.90;;;29.30;94.40;;;;;;4146925;28;20041;-62
2022/05/17 04:57:01;;;;;;;6.35;5.43;;;29.20;94.30;;;;;;4146598;28;20076;-62
2022/05/17 04:59:11;;;;;;;6.50;4.80;;;29.20;94.70;;;;;;4146358;28;20046;-63
2022/05/17 05:01:15;;;;;;;7.35;5.38;;;29.30;94.90;;;;;;4158368;28;20388;-62
2022/05/17 05:03:20;;;;;;;7.43;4.97;;;29.40;94.90;;;;;;4145800;28;20037;-63
2022/05/17 05:05:26;;;;;;;7.50;5.13;;;29.50;94.80;;;;;;4138960;28;20042;-63
2022/05/17 05:07:30;;;;;;;6.10;4.60;;;29.50;94.90;;;;;;4146605;28;20129;-63
2022/05/17 05:09:35;;;;;;;5.32;4.70;;;29.50;94.60;;;;;;4145253;28;20567;-63
2022/05/17 05:11:40;;;;;;;8.15;5.15;;;29.50;94.70;;;;;;4145106;28;20147;-64
2022/05/17 05:13:46;;;;;;;7.53;5.20;;;29.40;94.50;;;;;;4145629;28;20049;-64
2022/05/17 05:15:51;;;;;;;6.63;5.07;;;29.40;94.70;;;;;;4146532;28;20137;-63
2022/05/17 05:17:56;;;;;;;6.70;4.72;;;29.40;94.70;;;;;;4145117;28;20493;-63
2022/05/17 05:20:01;;;;;;;7.63;5.15;;;29.50;94.50;;;;;;4146423;28;20038;-63
2022/05/17 05:22:07;;;;;;;5.68;5.03;;;29.50;94.40;;;;;;4146058;28;20052;-63
2022/05/17 05:24:11;;;;;;;6.55;4.80;;;29.60;94.60;;;;;;4146298;28;20046;-63
2022/05/17 05:26:16;;;;;;;6.65;4.90;;;29.70;94.70;;;;;;4144729;28;20085;-63
2022/05/17 05:28:21;;;;;;;6.57;4.30;;;29.90;94.50;;;;;;4145063;28;20050;-63
2022/05/17 05:30:26;;;;;;;7.78;4.90;;;30.00;94.30;;;;;;4146558;28;20073;-63
2022/05/17 05:32:31;;;;;;;6.40;4.65;;;30.10;94.20;;;;;;4141492;28;20571;-63
2022/05/17 05:34:36;;;;;;;5.00;4.45;;;30.10;94.20;;;;;;4146164;28;20045;-63
2022/05/17 05:36:43;;;;;;;6.25;4.35;;;30.00;93.60;;;;;;4142612;28;20050;-63
2022/05/17 05:38:48;;;;;;;5.13;4.60;;;30.00;94.30;;;;;;4146188;28;20108;-63
2022/05/17 05:40:54;;;;;;;6.03;4.90;;;30.00;94.20;;;;;;4146387;28;20059;-62
2022/05/17 05:42:59;;;;;;;5.25;4.22;;;30.20;94.20;;;;;;4145929;28;20120;-62
2022/05/17 05:45:05;;;;;;;5.72;4.70;;;30.10;93.90;;;;;;4146255;28;20138;-63
2022/05/17 05:47:10;;;;;;;6.55;4.50;;;30.20;94.20;;;;;;4159300;28;20272;-62
2022/05/17 05:49:16;;;;;;;5.05;4.53;;;30.30;93.90;;;;;;4149361;28;20054;-63
2022/05/17 05:51:20;;;;;;;5.70;4.40;;;30.30;93.80;;;;;;4149586;28;20064;-63
2022/05/17 05:53:25;;;;;;;6.30;4.75;;;30.30;93.90;;;;;;4148243;28;20050;-63
2022/05/17 05:55:29;;;;;;;4.93;4.30;;;30.40;93.80;;;;;;4147931;28;20052;-63
2022/05/17 05:57:34;;;;;;;6.22;4.60;;;30.40;93.80;;;;;;4147931;28;20513;-63
2022/05/17 05:59:41;;;;;;;6.68;4.63;;;30.40;93.90;;;;;;4149420;28;20046;-63
2022/05/17 06:01:45;;;;;;;6.18;4.32;;;30.30;94.00;;;;;;4149474;28;20531;-63
2022/05/17 06:03:50;;;;;;;6.47;4.50;;;30.30;94.00;;;;;;4148791;28;20134;-63
2022/05/17 06:05:55;;;;;;;6.15;4.60;;;30.10;93.70;;;;;;4149318;28;20061;-63
2022/05/17 06:08:01;;;;;;;5.53;4.40;;;30.20;93.60;;;;;;4138784;28;20048;-62
2022/05/17 06:10:07;;;;;;;6.40;5.35;;;30.30;93.60;;;;;;4149524;28;20042;-63
2022/05/17 06:12:12;;;;;;;6.43;4.95;;;30.50;93.70;;;;;;4148921;28;20053;-63
2022/05/17 06:14:16;;;;;;;6.70;4.85;;;30.50;93.90;;;;;;4152106;28;20092;-63
2022/05/17 06:16:21;;;;;;;7.00;5.50;;;30.60;93.90;;;;;;4149312;28;20133;-64
2022/05/17 06:18:26;;;;;;;6.75;5.20;;;30.60;93.80;;;;;;4147862;28;20096;-64
2022/05/17 06:20:30;;;;;;;5.97;4.50;;;30.60;93.80;;;;;;4146867;28;20128;-63
2022/05/17 06:22:35;;;;;;;6.18;4.60;;;30.70;93.80;;;;;;4148106;28;20073;-64
2022/05/17 06:24:39;;;;;;;6.90;5.15;;;30.70;93.90;;;;;;4147886;28;20180;-64
2022/05/17 06:26:44;;;;;;;5.97;4.95;;;30.80;94.10;;;;;;4147709;28;20069;-64
2022/05/17 06:28:48;;;;;;;6.18;4.65;;;30.90;93.90;;;;;;4146435;28;20053;-63
2022/05/17 06:30:53;;;;;;;5.03;4.53;;;30.80;93.90;;;;;;4149513;28;20057;-63
2022/05/17 06:33:00;;;;;;;6.95;4.70;;;30.80;94.00;;;;;;4148954;28;20073;-65
2022/05/17 06:35:06;;;;;;;5.55;4.90;;;30.80;93.80;;;;;;4149003;28;20104;-63
2022/05/17 06:37:11;;;;;;;6.03;4.50;;;30.80;93.90;;;;;;4142472;28;20394;-63
2022/05/17 06:39:16;;;;;;;6.35;4.82;;;30.80;93.60;;;;;;4147569;28;20052;-63
2022/05/17 06:41:23;;;;;;;6.13;5.07;;;30.80;93.70;;;;;;4147696;28;20042;-63
2022/05/17 06:43:28;;;;;;;6.13;4.57;;;30.70;93.40;;;;;;4148536;28;20041;-63
2022/05/17 06:45:33;;;;;;;6.50;5.18;;;30.80;93.50;;;;;;4147485;28;20520;-63
2022/05/17 06:47:38;;;;;;;5.13;4.57;;;30.60;93.40;;;;;;4148141;28;20068;-63
2022/05/17 06:49:43;;;;;;;5.63;4.75;;;30.70;93.60;;;;;;4148441;28;20088;-63
2022/05/17 06:51:48;;;;;;;6.45;4.57;;;30.80;93.60;;;;;;4148210;28;20054;-63
2022/05/17 06:53:53;;;;;;;6.05;4.63;;;30.90;93.50;;;;;;4139756;28;20389;-63
2022/05/17 06:55:58;;;;;;;5.70;4.57;;;30.80;93.40;;;;;;4148629;28;20508;-64
2022/05/17 06:58:03;;;;;;;5.75;4.80;;;30.80;93.30;;;;;;4155246;28;20133;-63
2022/05/17 07:00:11;;;;;;;5.95;5.00;;;30.60;93.50;;;;;;4131047;28;20057;-63
2022/05/17 07:02:16;;;;;;;6.45;5.00;;;30.80;93.70;;;;;;4144300;28;20046;-63
2022/05/17 07:04:21;;;;;;;5.68;4.60;;;30.80;93.30;;;;;;4148455;28;20048;-63
2022/05/17 07:06:27;;;;;;;5.38;4.63;;;31.00;93.30;;;;;;4143699;28;20042;-63
2022/05/17 07:08:32;;;;;;;6.40;5.32;;;31.00;93.20;;;;;;4147100;28;20037;-63
2022/05/17 07:15:11;;;;;;;6.32;4.35;;;30.90;93.90;;;;;;4147712;28;20774;-64
2022/05/17 07:17:17;;;;;;;7.30;5.25;;;31.00;93.90;;;;;;4148082;28;20501;-62
2022/05/17 07:19:21;;;;;;;7.45;4.68;;;31.10;93.90;;;;;;4145115;28;20440;-64
2022/05/17 07:21:40;;;;;;;5.22;4.43;;;31.30;93.60;;;;;;4144619;28;20052;-63
2022/05/17 07:23:44;;;;;;;7.85;4.50;;;31.30;93.60;;;;;;4148212;28;20053;-63
2022/05/17 07:25:51;;;;;;;6.28;4.88;;;31.40;93.50;;;;;;4146726;28;20531;-63
2022/05/17 07:27:56;;;;;;;7.10;5.43;;;31.30;93.50;;;;;;4147387;28;20062;-63
2022/05/17 07:30:00;;;;;;;6.55;5.10;;;31.20;93.80;;;;;;4145887;28;20049;-63
2022/05/17 07:32:07;;;;;;;6.57;4.80;;;31.20;93.80;;;;;;4137176;28;20037;-63
2022/05/17 07:34:18;;;;;;;5.03;4.53;;;31.20;93.80;;;;;;4147201;28;20088;-64
2022/05/17 07:36:28;;;;;;;7.55;5.20;;;31.10;93.90;;;;;;4147708;28;20061;-63
2022/05/17 07:38:34;;;;;;;5.80;5.05;;;31.00;93.90;;;;;;4146233;28;20049;-63
2022/05/17 07:40:39;;;;;;;5.75;4.63;;;30.90;93.80;;;;;;4152895;28;20037;-63
2022/05/17 07:42:44;;;;;;;7.60;4.90;;;30.90;93.70;;;;;;4148231;28;20108;-63
2022/05/17 07:44:49;;;;;;;5.70;4.72;;;31.00;93.80;;;;;;4146893;28;20049;-63
2022/05/17 07:46:53;;;;;;;5.68;4.72;;;31.10;93.70;;;;;;4146839;28;20041;-62
2022/05/17 07:49:02;;;;;;;7.93;5.45;;;31.10;93.50;;;;;;4146069;28;20041;-63
2022/05/17 07:51:13;;;;;;;7.72;4.95;;;31.20;93.50;;;;;;4155924;28;20077;-63
2022/05/17 07:53:20;;;;;;;7.20;4.80;;;31.30;93.50;;;;;;4147686;28;20038;-63
2022/05/17 07:55:25;;;;;;;7.35;5.43;;;31.10;93.60;;;;;;4154370;28;20056;-63
2022/05/17 07:57:34;;;;;;;8.13;5.40;;;30.90;94.00;;;;;;4147055;28;20125;-63
2022/05/17 07:59:39;;;;;;;6.15;5.22;;;30.90;94.20;;;;;;4147514;28;20129;-62
2022/05/17 08:01:44;;;;;;;6.28;4.75;;;31.20;94.20;;;;;;4147294;28;20038;-63
2022/05/17 08:03:48;;;;;;;7.38;5.68;;;31.40;94.10;;;;;;4147317;28;20132;-62
2022/05/17 08:05:53;;;;;;;6.90;5.30;;;31.40;93.90;;;;;;4150946;28;20046;-62
2022/05/17 08:07:58;;;;;;;7.43;5.70;;;31.50;93.80;;;;;;4145273;28;20057;-62
2022/05/17 08:10:03;;;;;;;6.80;5.00;;;31.50;93.80;;;;;;4146985;28;20103;-63
2022/05/17 08:12:09;;;;;;;6.50;5.28;;;31.50;93.80;;;;;;4153215;28;20487;-62
2022/05/17 08:14:15;;;;;;;8.25;4.97;;;31.50;93.90;;;;;;4149950;28;20049;-62
2022/05/17 08:16:21;;;;;;;7.60;5.05;;;31.40;93.60;;;;;;4147199;28;20076;-62
2022/05/17 08:18:25;;;;;;;8.43;5.20;;;31.40;93.60;;;;;;4146279;28;20044;-62
2022/05/17 08:20:32;;;;;;;7.43;4.72;;;31.50;93.80;;;;;;4146971;28;20046;-62
2022/05/17 08:22:41;;;;;;;5.45;4.88;;;31.50;93.70;;;;;;4139619;28;20364;-62
2022/05/17 08:29:23;;;;;;;6.82;5.10;;;31.50;93.40;;;;;;4145076;28;20038;-63
2022/05/17 08:31:28;;;;;;;5.68;4.95;;;31.50;93.60;;;;;;4146895;28;20129;-63
2022/05/17 08:33:35;;;;;;;8.40;5.20;;;31.50;93.70;;;;;;4147007;28;20038;-63
2022/05/17 08:35:55;;;;;;;6.47;5.20;;;31.60;93.60;;;;;;4146639;28;20392;-63
2022/05/17 08:38:00;;;;;;;6.00;5.22;;;31.60;93.30;;;;;;4139807;28;20093;-62
2022/05/17 08:40:06;;;;;;;6.25;4.50;;;31.70;93.30;;;;;;4146634;28;20050;-62
2022/05/17 08:42:44;;;;;;;4.45;3.97;;;31.60;93.40;;;;;;4146883;28;20038;-63
2022/05/17 08:44:54;;;;;;;6.22;4.82;;;31.60;93.40;;;;;;4139265;28;20054;-63
2022/05/17 08:47:12;;;;;;;5.88;4.32;;;31.40;93.50;;;;;;4135025;28;20042;-62
2022/05/17 08:49:54;;;;;;;5.55;4.60;;;31.50;93.30;;;;;;4146245;28;20511;-62
2022/05/17 08:52:02;;;;;;;4.68;4.10;;;31.50;93.60;;;;;;4152841;28;20088;-62
2022/05/17 08:54:14;;;;;;;4.90;4.40;;;31.50;93.50;;;;;;4146629;28;20057;-62
2022/05/17 08:56:19;;;;;;;5.05;4.35;;;31.50;93.70;;;;;;4135521;28;20038;-62
2022/05/17 08:58:28;;;;;;;5.88;4.88;;;31.40;93.80;;;;;;4145061;28;20476;-62
2022/05/17 09:00:57;;;;;;;6.60;4.47;;;31.30;93.70;;;;;;4130761;28;20369;-62
2022/05/17 09:03:14;;;;;;;5.90;4.70;;;31.20;94.10;;;;;;4146361;28;20046;-62
2022/05/17 09:05:36;;;;;;;8.30;4.85;;;31.10;94.20;;;;;;4146614;28;20694;-63
2022/05/17 09:07:48;;;;;;;8.23;4.57;;;30.90;94.60;;;;;;4146425;28;20366;-62
2022/05/17 09:10:04;;;;;;;7.80;5.10;;;31.00;94.60;;;;;;4145457;28;20456;-62
2022/05/17 09:12:13;;;;;;;5.68;4.60;;;30.90;94.50;;;;;;4144522;28;20472;-60
2022/05/17 09:14:22;;;;;;;5.85;5.13;;;30.90;94.60;;;;;;4139751;28;21516;-62
2022/05/17 09:16:36;;;;;;;6.68;4.95;;;30.90;94.70;;;;;;4146128;28;20041;-62
2022/05/17 09:18:40;;;;;;;;;;;30.80;94.90;;;;;;4144631;28;20041;-62
2022/05/17 09:20:55;;;;;;;7.05;5.25;;;30.70;95.00;;;;;;4145369;28;20003;-62
2022/05/17 09:23:03;;;;;;;6.95;5.07;;;30.60;95.20;;;;;;4146086;28;20037;-62
2022/05/17 09:25:23;;;;;;;5.80;4.68;;;30.60;95.20;;;;;;4146610;28;20069;-63
2022/05/17 09:27:38;;;;;;;6.53;5.15;;;30.60;95.20;;;;;;4139857;28;20096;-62
2022/05/17 09:29:45;;;;;;;6.97;5.63;;;30.60;95.30;;;;;;4144884;28;20473;-62
2022/05/17 09:31:53;;;;;;;6.32;5.18;;;30.50;95.30;;;;;;4146472;28;20053;-61
2022/05/17 09:34:08;;;;;;;8.00;6.28;;;30.50;95.40;;;;;;4151577;28;20124;-63
2022/05/17 09:36:22;;;;;;;6.93;5.65;;;30.50;95.50;;;;;;4129667;28;20567;-61
2022/05/17 09:38:31;;;;;;;10.05;8.30;;;30.50;95.60;;;;;;4136303;28;20097;-61
2022/05/17 09:40:40;;;;;;;8.07;6.70;;;30.50;95.50;;;;;;4145588;28;20397;-62
2022/05/17 09:43:02;;;;;;;6.97;5.57;;;30.40;95.60;;;;;;4157290;28;20459;-62
2022/05/17 09:45:10;;;;;;;6.88;5.35;;;30.40;95.50;;;;;;4133550;28;20161;-62
2022/05/17 09:47:44;;;;;;;9.02;5.65;;;30.40;95.60;;;;;;4145185;28;20089;-62
2022/05/17 09:54:47;;;;;;;5.07;4.50;;;30.30;96.10;;;;;;4137888;28;20129;-63
2022/05/17 09:56:52;;;;;;;6.88;4.78;;;30.30;96.20;;;;;;4143984;28;20045;-62
2022/05/17 09:58:57;;;;;;;8.10;4.80;;;30.30;96.10;;;;;;4127357;28;20049;-62
2022/05/17 10:01:10;;;;;;;8.63;4.72;;;30.30;96.10;;;;;;4123704;28;20413;-63
2022/05/17 10:03:15;;;;;;;7.00;4.93;;;30.30;96.20;;;;;;4143902;28;20084;-63
2022/05/17 10:05:27;;;;;;;13.73;5.45;;;30.30;96.10;;;;;;4143946;28;20089;-62
2022/05/17 10:07:33;;;;;;;5.93;5.07;;;30.20;95.70;;;;;;4093762;28;20040;-63
2022/05/17 10:09:49;;;;;;;6.63;4.82;;;30.20;95.80;;;;;;4111486;28;20058;-62
2022/05/17 10:12:04;;;;;;;5.28;4.38;;;30.10;95.80;;;;;;4143883;28;20073;-62
2022/05/17 10:14:15;;;;;;;6.30;4.70;;;30.10;95.90;;;;;;4143770;28;20104;-63
2022/05/17 10:16:24;;;;;;;;;;;30.10;96.10;;;;;;4143488;28;20045;-62
2022/05/17 10:18:42;;;;;;;16.92;6.40;;;30.10;96.60;;;;;;4143895;28;19961;-63
2022/05/17 10:20:49;;;;;;;9.85;4.88;;;30.10;96.80;;;;;;4124223;28;20076;-61
2022/05/17 10:23:08;;;;;;;9.80;5.90;;;30.10;96.90;;;;;;4127116;28;20105;-63
2022/05/17 10:25:21;;;;;;;17.88;7.32;;;30.10;96.90;;;;;;4143139;28;20049;-63
2022/05/17 10:27:41;;;;;;;18.10;9.15;;;30.10;97.00;;;;;;4158522;28;20049;-63
2022/05/17 10:29:55;;;;;;;12.95;7.90;;;30.10;97.20;;;;;;4144962;28;20066;-62
2022/05/17 10:32:05;;;;;;;8.95;6.25;;;30.00;97.30;;;;;;4151166;28;20037;-62
2022/05/17 10:34:48;;;;;;;8.68;5.75;;;30.00;97.20;;;;;;4148682;28;20048;-63
2022/05/17 10:36:56;;;;;;;6.63;5.65;;;30.00;97.30;;;;;;4145972;28;20042;-63
2022/05/17 10:39:11;;;;;;;8.73;6.35;;;30.00;97.20;;;;;;4147210;28;20045;-63
2022/05/17 10:41:16;;;;;;;12.90;6.85;;;30.00;97.10;;;;;;4147520;28;20130;-63
2022/05/17 10:43:35;;;;;;;10.45;8.05;;;29.90;97.10;;;;;;4148207;28;20050;-63
2022/05/17 10:45:41;;;;;;;8.82;7.40;;;29.90;97.40;;;;;;4148843;28;20092;-62
2022/05/17 10:48:10;;;;;;;7.50;6.13;;;29.90;97.50;;;;;;4148039;28;20042;-62
2022/05/17 10:50:32;;;;;;;10.55;5.82;;;29.90;97.50;;;;;;4148438;28;20105;-63
2022/05/17 10:52:51;;;;;;;10.10;5.35;;;29.90;97.50;;;;;;4147819;28;20100;-61
2022/05/17 10:55:06;;;;;;;7.57;5.28;;;29.90;97.60;;;;;;4164678;28;20049;-61
2022/05/17 10:57:40;;;;;;;8.85;5.15;;;29.90;97.50;;;;;;4142285;28;20547;-62
2022/05/17 11:00:18;;;;;;;7.53;5.28;;;29.90;97.80;;;;;;4173250;28;20120;-62
2022/05/17 11:02:39;;;;;;;6.43;4.90;;;29.90;97.80;;;;;;4154303;28;20104;-62
2022/05/17 11:05:02;;;;;;;10.23;5.20;;;29.80;97.90;;;;;;4159681;28;20088;-63
2022/05/17 11:07:20;;;;;;;9.10;6.70;;;29.80;98.20;;;;;;4148285;28;20493;-62
2022/05/17 11:09:51;;;;;;;7.95;5.90;;;29.80;98.10;;;;;;4154900;28;20080;-63
2022/05/17 11:12:09;;;;;;;12.48;6.65;;;29.80;98.20;;;;;;4160793;28;20057;-62
2022/05/17 11:14:39;;;;;;;10.15;6.63;;;29.80;98.40;;;;;;4121933;28;20050;-60
2022/05/17 11:16:57;;;;;;;19.15;16.52;;;29.70;98.40;;;;;;4172530;28;20042;-62
2022/05/17 11:19:16;;;;;;;20.10;18.00;;;29.60;98.70;;;;;;4139963;28;20073;-62
2022/05/17 11:21:32;;;;;;;17.60;14.23;;;29.60;98.80;;;;;;4159158;28;20050;-62